Time;durP1;ratioP1;P1;durP2;ratioP2;P2;SDS_P1;SDS_P2;PMS_P1;PMS_P2;Temp;Humidity;BMP_temperature;BMP_pressure;BME280_temperature;BME280_humidity;BME280_pressure;Samples;Min_cycle;Max_cycle;Signal;HPM_P1;HPM_P2
2023/02/21 02:14:39;;;;;;;68.20;31.65;;;8.40;99.90;;;;;;5021892;28;20223;-71
2023/02/21 02:17:14;;;;;;;73.38;32.95;;;8.40;99.90;;;;;;5000904;28;20054;-72
2023/02/21 02:20:02;;;;;;;75.88;35.45;;;8.40;99.90;;;;;;5034666;28;20157;-72
2023/02/21 02:23:05;;;;;;;79.63;36.25;;;8.40;99.90;;;;;;5024743;28;20034;-71
2023/02/21 02:26:01;;;;;;;75.22;33.50;;;8.40;99.90;;;;;;5039172;28;20038;-71
2023/02/21 02:28:45;;;;;;;81.85;36.13;;;8.40;99.90;;;;;;5022955;28;20041;-71
2023/02/21 02:31:11;;;;;;;72.95;34.80;;;8.40;99.90;;;;;;5020662;28;20454;-71
2023/02/21 02:34:13;;;;;;;79.05;36.38;;;8.30;99.90;;;;;;5008016;28;20049;-71
2023/02/21 02:36:41;;;;;;;67.18;32.45;;;8.30;99.90;;;;;;5038656;28;20099;-71
2023/02/21 02:39:30;;;;;;;66.20;32.00;;;8.40;99.90;;;;;;4974801;28;20149;-71
2023/02/21 02:42:24;;;;;;;73.07;34.70;;;8.40;99.90;;;;;;4990162;28;20046;-71
2023/02/21 02:45:21;;;;;;;65.03;31.05;;;8.40;99.90;;;;;;5010412;28;20053;-71
2023/02/21 02:47:49;;;;;;;70.55;31.98;;;8.40;99.90;;;;;;5008680;28;20078;-71
2023/02/21 02:50:15;;;;;;;72.88;32.67;;;8.30;99.90;;;;;;4996264;28;20502;-71
2023/02/21 02:52:54;;;;;;;67.22;30.60;;;8.40;99.90;;;;;;5002582;28;20124;-71
2023/02/21 02:55:34;;;;;;;64.18;30.88;;;8.40;99.90;;;;;;5001530;28;20358;-71
2023/02/21 02:58:00;;;;;;;63.72;30.23;;;8.30;99.90;;;;;;5003491;28;20068;-71
2023/02/21 03:00:26;;;;;;;65.68;31.40;;;8.30;99.90;;;;;;4992412;28;20443;-71
2023/02/21 03:03:02;;;;;;;66.32;29.38;;;8.30;99.90;;;;;;5011375;28;20126;-71
2023/02/21 03:05:58;;;;;;;58.85;27.73;;;8.30;99.90;;;;;;5015883;28;20045;-71
2023/02/21 03:08:37;;;;;;;63.67;29.75;;;8.30;99.90;;;;;;5012460;28;20053;-71
2023/02/21 03:11:15;;;;;;;67.97;31.30;;;8.40;99.90;;;;;;5028140;28;20425;-71
2023/02/21 03:13:48;;;;;;;68.10;31.67;;;8.30;99.90;;;;;;5016184;28;20072;-71
2023/02/21 03:16:32;;;;;;;70.13;34.10;;;8.40;99.90;;;;;;5019235;28;20057;-71
2023/02/21 03:19:06;;;;;;;70.93;32.35;;;8.30;99.90;;;;;;4997284;28;20505;-72
2023/02/21 03:21:36;;;;;;;67.85;33.50;;;8.40;99.90;;;;;;5039272;28;20065;-71
2023/02/21 03:24:02;;;;;;;85.72;37.90;;;8.40;99.90;;;;;;5011565;28;20102;-71
2023/02/21 03:26:29;;;;;;;86.75;40.78;;;8.30;99.90;;;;;;5002277;28;20462;-71
2023/02/21 03:28:55;;;;;;;76.95;34.53;;;8.40;99.90;;;;;;4989433;28;20045;-71
2023/02/21 03:31:23;;;;;;;73.38;36.13;;;8.40;99.90;;;;;;4988017;28;20050;-71
2023/02/21 03:33:49;;;;;;;75.78;36.65;;;8.40;99.90;;;;;;5008937;28;20450;-71
2023/02/21 03:36:15;;;;;;;75.78;34.08;;;8.40;99.90;;;;;;5022939;28;20048;-71
2023/02/21 03:38:41;;;;;;;86.75;37.97;;;8.40;99.90;;;;;;5014671;28;20050;-71
2023/02/21 03:41:07;;;;;;;79.15;36.17;;;8.40;99.90;;;;;;5026780;28;20041;-71
2023/02/21 03:43:33;;;;;;;73.18;34.95;;;8.40;99.90;;;;;;5028228;28;20365;-71
2023/02/21 03:45:59;;;;;;;79.22;36.40;;;8.40;99.90;;;;;;5026590;28;20120;-71
2023/02/21 03:48:24;;;;;;;78.72;36.53;;;8.40;99.90;;;;;;5027470;28;20052;-72
2023/02/21 03:50:50;;;;;;;70.80;33.33;;;8.40;99.90;;;;;;5014277;28;20463;-71
2023/02/21 03:53:16;;;;;;;72.82;34.40;;;8.40;99.90;;;;;;5036559;28;20049;-71
2023/02/21 03:55:42;;;;;;;71.45;32.47;;;8.30;99.90;;;;;;5020998;28;20114;-71
2023/02/21 03:58:07;;;;;;;79.10;35.63;;;8.40;99.90;;;;;;4994702;28;20097;-71
2023/02/21 04:00:33;;;;;;;71.18;32.90;;;8.40;99.90;;;;;;5021788;28;20137;-71
2023/02/21 04:02:59;;;;;;;70.03;32.72;;;8.40;99.90;;;;;;5038637;28;20052;-71
2023/02/21 04:05:25;;;;;;;68.30;32.65;;;8.40;99.90;;;;;;5014821;28;20458;-71
2023/02/21 04:07:50;;;;;;;67.53;31.90;;;8.40;99.90;;;;;;5004782;28;20052;-72
2023/02/21 04:10:16;;;;;;;71.70;33.65;;;8.40;99.90;;;;;;5003476;28;20072;-71
2023/02/21 04:12:42;;;;;;;65.65;31.50;;;8.40;99.90;;;;;;5030852;28;20131;-72
2023/02/21 04:15:09;;;;;;;67.68;33.75;;;8.40;99.90;;;;;;5019654;28;20076;-71
2023/02/21 04:17:34;;;;;;;71.88;32.20;;;8.40;99.90;;;;;;5024913;28;20427;-72
2023/02/21 04:20:00;;;;;;;69.93;32.67;;;8.40;99.90;;;;;;5004585;28;20100;-72
2023/02/21 04:22:26;;;;;;;63.67;31.05;;;8.40;99.90;;;;;;5025589;28;20350;-72
2023/02/21 04:24:51;;;;;;;61.50;30.80;;;8.40;99.90;;;;;;4996135;28;20053;-72
2023/02/21 04:27:17;;;;;;;65.07;31.25;;;8.50;99.90;;;;;;5022389;28;20053;-71
2023/02/21 04:29:43;;;;;;;69.93;32.20;;;8.50;99.90;;;;;;5023746;28;20053;-72
2023/02/21 04:32:09;;;;;;;70.40;31.45;;;8.40;99.90;;;;;;5022147;28;20155;-72
2023/02/21 04:34:35;;;;;;;62.78;31.25;;;8.50;99.90;;;;;;4971650;28;20564;-72
2023/02/21 04:37:01;;;;;;;67.28;31.65;;;8.50;99.90;;;;;;5014985;28;20069;-72
2023/02/21 04:39:26;;;;;;;68.25;31.33;;;8.50;99.90;;;;;;5036544;28;20041;-72
2023/02/21 04:41:52;;;;;;;72.57;31.80;;;8.50;99.90;;;;;;5018585;28;20552;-72
2023/02/21 04:44:18;;;;;;;66.28;31.80;;;8.40;99.90;;;;;;4995550;28;20363;-71
2023/02/21 04:46:43;;;;;;;69.18;33.78;;;8.50;99.90;;;;;;5014037;28;20255;-71
2023/02/21 04:49:11;;;;;;;67.30;31.60;;;8.40;99.90;;;;;;5029546;28;20053;-71
2023/02/21 04:51:36;;;;;;;69.90;33.63;;;8.40;99.90;;;;;;5031040;28;20065;-72
2023/02/21 04:54:02;;;;;;;68.05;32.38;;;8.40;99.90;;;;;;5010823;28;20049;-71
2023/02/21 04:56:28;;;;;;;64.35;30.60;;;8.40;99.90;;;;;;5030903;28;20044;-72
2023/02/21 04:58:54;;;;;;;71.47;33.00;;;8.50;99.90;;;;;;4995540;28;20525;-71
2023/02/21 05:01:20;;;;;;;72.65;34.05;;;8.50;99.90;;;;;;4993537;28;20379;-71
2023/02/21 05:03:46;;;;;;;70.88;34.20;;;8.50;99.90;;;;;;4987733;28;20092;-71
2023/02/21 05:06:23;;;;;;;68.85;32.70;;;8.50;99.90;;;;;;5045833;28;20077;-71
2023/02/21 05:08:48;;;;;;;70.75;33.70;;;8.60;99.90;;;;;;5010987;28;20140;-71
2023/02/21 05:11:14;;;;;;;67.30;32.50;;;8.50;99.90;;;;;;5011258;28;20121;-71
2023/02/21 05:13:41;;;;;;;72.60;35.17;;;8.60;99.90;;;;;;4997378;28;20058;-71
2023/02/21 05:16:07;;;;;;;68.45;33.78;;;8.60;99.90;;;;;;5013896;28;20042;-71
2023/02/21 05:18:33;;;;;;;67.93;33.90;;;8.60;99.90;;;;;;5024929;28;20057;-71
2023/02/21 05:20:59;;;;;;;70.65;34.42;;;8.60;99.90;;;;;;5013604;28;20064;-71
2023/02/21 05:23:34;;;;;;;73.80;35.15;;;8.60;99.90;;;;;;5020025;28;20141;-72
2023/02/21 05:26:05;;;;;;;68.18;33.50;;;8.50;99.90;;;;;;5030368;28;20755;-71
2023/02/21 05:28:31;;;;;;;64.68;33.28;;;8.60;99.90;;;;;;5017800;28;20045;-71
2023/02/21 05:30:56;;;;;;;72.18;34.67;;;8.60;99.90;;;;;;5017862;28;20045;-72
2023/02/21 05:33:22;;;;;;;70.18;35.38;;;8.60;99.90;;;;;;5029760;28;20485;-71
2023/02/21 05:35:48;;;;;;;65.88;32.15;;;8.60;99.90;;;;;;5023953;28;20081;-71
2023/02/21 05:38:15;;;;;;;70.22;33.40;;;8.60;99.90;;;;;;5002465;28;20053;-72
2023/02/21 05:40:40;;;;;;;69.28;33.65;;;8.70;99.90;;;;;;5006286;28;20046;-71
2023/02/21 05:43:06;;;;;;;64.35;33.33;;;8.70;99.90;;;;;;5016900;28;20049;-71
2023/02/21 05:45:32;;;;;;;70.40;34.30;;;8.70;99.90;;;;;;5030462;28;20049;-71
2023/02/21 05:48:01;;;;;;;66.47;32.70;;;8.70;99.90;;;;;;5024116;28;20462;-71
2023/02/21 05:50:27;;;;;;;66.20;33.40;;;8.80;99.90;;;;;;5007389;28;20119;-72
2023/02/21 05:52:52;;;;;;;61.72;32.90;;;8.70;99.90;;;;;;5029881;28;20060;-72
2023/02/21 05:55:18;;;;;;;67.10;33.08;;;8.80;99.90;;;;;;5003161;28;20049;-71
2023/02/21 05:57:44;;;;;;;65.20;33.17;;;8.70;99.90;;;;;;5024041;28;20053;-71
2023/02/21 06:00:17;;;;;;;71.03;34.38;;;8.80;99.90;;;;;;5024750;28;20061;-71
2023/02/21 06:02:43;;;;;;;69.82;36.00;;;8.70;99.90;;;;;;5008560;28;20050;-71
2023/02/21 06:05:10;;;;;;;68.78;34.17;;;8.70;99.90;;;;;;5010709;28;20068;-71
2023/02/21 06:07:36;;;;;;;67.28;32.20;;;8.70;99.90;;;;;;5040090;28;20045;-71
2023/02/21 06:10:02;;;;;;;70.15;33.70;;;8.80;99.90;;;;;;4995377;28;20052;-71
2023/02/21 06:12:28;;;;;;;63.47;31.70;;;8.80;99.90;;;;;;5006982;28;20132;-71
2023/02/21 06:14:54;;;;;;;59.00;30.85;;;8.80;99.90;;;;;;5011934;28;20125;-71
2023/02/21 06:17:19;;;;;;;60.58;29.33;;;8.80;99.90;;;;;;5009818;28;20336;-72
2023/02/21 06:19:45;;;;;;;59.72;32.03;;;8.80;99.90;;;;;;5027904;28;20042;-73
2023/02/21 06:22:11;;;;;;;62.95;32.33;;;8.80;99.90;;;;;;5016051;28;20065;-72
2023/02/21 06:24:37;;;;;;;57.33;31.48;;;8.80;99.90;;;;;;5011553;28;20083;-72
2023/02/21 06:27:02;;;;;;;53.72;29.02;;;8.80;99.90;;;;;;4988705;28;20471;-73
2023/02/21 06:29:28;;;;;;;52.83;28.77;;;8.90;99.90;;;;;;5045254;28;20370;-73
2023/02/21 06:31:57;;;;;;;52.30;27.75;;;8.90;99.90;;;;;;5018154;28;20049;-73
2023/02/21 06:34:23;;;;;;;53.47;27.58;;;8.90;99.90;;;;;;5022405;28;20552;-73
2023/02/21 06:36:53;;;;;;;51.28;25.65;;;8.90;99.90;;;;;;5006197;28;20045;-72
2023/02/21 06:39:19;;;;;;;48.63;26.98;;;8.90;99.90;;;;;;5028015;28;20041;-73
2023/02/21 06:41:45;;;;;;;45.28;26.08;;;8.90;99.90;;;;;;5006064;28;20076;-73
2023/02/21 06:44:10;;;;;;;49.72;26.30;;;8.90;99.90;;;;;;4993356;28;20383;-73
2023/02/21 06:46:36;;;;;;;48.45;25.77;;;8.90;99.90;;;;;;4993531;28;20077;-72
2023/02/21 06:49:03;;;;;;;45.70;24.70;;;8.90;99.90;;;;;;5021260;28;20056;-72
2023/02/21 06:51:39;;;;;;;48.22;26.90;;;8.90;99.90;;;;;;4989495;28;20148;-73
2023/02/21 06:54:06;;;;;;;47.58;24.13;;;9.00;99.90;;;;;;4987031;28;20502;-73
2023/02/21 06:56:32;;;;;;;46.75;25.40;;;8.90;99.90;;;;;;5029392;28;20052;-73
2023/02/21 06:58:58;;;;;;;44.35;23.83;;;8.90;99.90;;;;;;4994182;28;20053;-71
2023/02/21 07:01:28;;;;;;;49.70;26.90;;;8.90;99.90;;;;;;5022441;28;20348;-73
2023/02/21 07:03:55;;;;;;;46.22;24.30;;;8.90;99.90;;;;;;5029043;28;20381;-73
2023/02/21 07:06:21;;;;;;;46.67;24.67;;;8.90;99.90;;;;;;4999772;28;20366;-73
2023/02/21 07:08:47;;;;;;;50.83;25.80;;;8.90;99.90;;;;;;4992197;28;20046;-73
2023/02/21 07:11:13;;;;;;;45.50;24.98;;;8.90;99.90;;;;;;5001433;28;20080;-73
2023/02/21 07:13:39;;;;;;;46.33;25.73;;;8.90;99.90;;;;;;5021983;28;20050;-73
2023/02/21 07:16:05;;;;;;;45.63;25.52;;;8.90;99.90;;;;;;4994782;28;20096;-74
2023/02/21 07:18:31;;;;;;;47.90;26.30;;;8.90;99.90;;;;;;5027138;28;20767;-73
2023/02/21 07:20:56;;;;;;;53.33;27.55;;;8.90;99.90;;;;;;5012674;28;20089;-72
2023/02/21 07:23:22;;;;;;;49.70;25.05;;;8.90;99.90;;;;;;4993674;28;20049;-73
2023/02/21 07:25:48;;;;;;;51.55;26.48;;;8.80;99.90;;;;;;5029320;28;20053;-73
2023/02/21 07:28:14;;;;;;;51.00;27.33;;;8.80;99.90;;;;;;5028771;28;20318;-72
2023/02/21 07:30:39;;;;;;;50.40;25.52;;;8.80;99.90;;;;;;5017154;28;20099;-73
2023/02/21 07:33:05;;;;;;;54.65;28.13;;;8.80;99.90;;;;;;5008534;28;20473;-73
2023/02/21 07:35:31;;;;;;;53.90;27.27;;;8.80;99.90;;;;;;5026731;28;20754;-72
2023/02/21 07:37:57;;;;;;;58.38;29.08;;;8.70;99.90;;;;;;5021508;28;20053;-72
2023/02/21 07:40:22;;;;;;;59.25;27.98;;;8.70;99.90;;;;;;5020528;28;20045;-72
2023/02/21 07:42:48;;;;;;;61.83;29.77;;;8.70;99.90;;;;;;5007215;28;20060;-72
2023/02/21 07:45:14;;;;;;;64.38;29.38;;;8.70;99.90;;;;;;5024379;28;20492;-73
2023/02/21 07:47:42;;;;;;;56.70;26.92;;;8.70;99.90;;;;;;4993613;28;20061;-72
2023/02/21 07:50:08;;;;;;;55.67;27.40;;;8.70;99.90;;;;;;5019797;28;20133;-72
2023/02/21 07:52:34;;;;;;;58.47;28.05;;;8.80;99.90;;;;;;4998965;28;20526;-72
2023/02/21 07:54:59;;;;;;;55.20;27.45;;;8.70;99.90;;;;;;5038671;28;20055;-72
2023/02/21 07:57:25;;;;;;;51.70;25.52;;;8.70;99.90;;;;;;5039051;28;20069;-72
2023/02/21 07:59:51;;;;;;;59.20;28.52;;;8.70;99.90;;;;;;4985873;28;20100;-72
2023/02/21 08:02:17;;;;;;;59.55;27.40;;;8.70;99.90;;;;;;5026644;28;20124;-72
2023/02/21 08:04:42;;;;;;;52.40;26.55;;;8.70;99.90;;;;;;5044242;28;20107;-73
2023/02/21 08:07:08;;;;;;;51.83;26.05;;;8.70;99.90;;;;;;5011564;28;20128;-73
2023/02/21 08:09:34;;;;;;;58.35;28.80;;;8.80;99.90;;;;;;5021682;28;20472;-72
2023/02/21 08:12:00;;;;;;;55.35;28.83;;;8.80;99.90;;;;;;5021139;28;20053;-72
2023/02/21 08:14:26;;;;;;;60.30;28.85;;;8.70;99.90;;;;;;5023861;28;20061;-72
2023/02/21 08:16:52;;;;;;;57.92;28.30;;;8.70;99.90;;;;;;4997476;28;20124;-73
2023/02/21 08:19:17;;;;;;;53.20;27.45;;;8.80;99.90;;;;;;5026575;28;20069;-73
2023/02/21 08:21:45;;;;;;;52.97;26.55;;;8.80;99.90;;;;;;5007359;28;20050;-73
2023/02/21 08:24:11;;;;;;;56.90;28.93;;;8.80;99.90;;;;;;5021830;28;20050;-73
2023/02/21 08:26:36;;;;;;;56.85;27.73;;;8.90;99.90;;;;;;5005348;28;20332;-73
2023/02/21 08:29:02;;;;;;;46.75;24.77;;;8.90;99.90;;;;;;4998787;28;20053;-72
2023/02/21 08:31:28;;;;;;;54.80;27.63;;;8.90;99.90;;;;;;5011365;28;20049;-72
2023/02/21 08:33:54;;;;;;;56.33;26.77;;;8.90;99.90;;;;;;5034465;28;20467;-72
2023/02/21 08:36:20;;;;;;;48.70;26.80;;;8.90;99.90;;;;;;5018332;28;20095;-72
2023/02/21 08:38:45;;;;;;;52.45;27.17;;;8.90;99.90;;;;;;5003058;28;20056;-72
2023/02/21 08:41:11;;;;;;;50.92;25.42;;;8.90;99.90;;;;;;5042197;28;20064;-73
2023/02/21 08:43:37;;;;;;;52.35;27.20;;;9.00;99.90;;;;;;5007816;28;20046;-73
2023/02/21 08:46:03;;;;;;;54.10;26.88;;;9.00;99.90;;;;;;4993253;28;20478;-74
2023/02/21 08:48:28;;;;;;;50.88;26.48;;;9.00;99.90;;;;;;5026171;28;20095;-74
2023/02/21 08:50:54;;;;;;;51.67;25.65;;;9.00;99.90;;;;;;5020319;28;20060;-74
2023/02/21 08:53:20;;;;;;;51.97;26.35;;;9.00;99.90;;;;;;5014642;28;20061;-73
2023/02/21 08:55:46;;;;;;;54.08;26.77;;;9.00;99.90;;;;;;4999366;28;20053;-74
2023/02/21 08:58:11;;;;;;;45.97;26.27;;;9.00;99.90;;;;;;5001660;28;20045;-75
2023/02/21 09:00:37;;;;;;;48.60;26.10;;;9.10;99.90;;;;;;5014876;28;20049;-75
2023/02/21 09:03:03;;;;;;;51.55;27.17;;;9.10;99.90;;;;;;5045720;28;20049;-74
2023/02/21 09:05:29;;;;;;;51.35;26.63;;;9.10;99.90;;;;;;5039915;28;20056;-73
2023/02/21 09:08:00;;;;;;;50.35;26.48;;;9.10;99.90;;;;;;5008180;28;20490;-72
2023/02/21 09:10:27;;;;;;;52.40;28.40;;;9.20;99.90;;;;;;5029936;28;20041;-73
2023/02/21 09:12:52;;;;;;;54.70;27.52;;;9.20;99.90;;;;;;4995494;28;20042;-72
2023/02/21 09:15:18;;;;;;;55.13;29.23;;;9.10;99.90;;;;;;5029677;28;20056;-73
2023/02/21 09:17:44;;;;;;;54.33;29.25;;;9.10;99.90;;;;;;5029796;28;20041;-73
2023/02/21 09:20:12;;;;;;;54.88;28.35;;;9.10;99.90;;;;;;5019400;28;20038;-73
2023/02/21 09:22:37;;;;;;;59.95;30.08;;;9.20;99.90;;;;;;4990038;28;20041;-73
2023/02/21 09:25:04;;;;;;;54.85;29.98;;;9.20;99.90;;;;;;5009918;28;20521;-72
2023/02/21 09:27:35;;;;;;;60.63;30.02;;;9.20;99.90;;;;;;5028217;28;20049;-72
2023/02/21 09:30:12;;;;;;;57.65;28.95;;;9.20;99.90;;;;;;5028827;28;20091;-72
2023/02/21 09:32:38;;;;;;;57.33;28.70;;;9.20;99.90;;;;;;5014797;28;20068;-72
2023/02/21 09:35:05;;;;;;;49.55;26.73;;;9.20;99.90;;;;;;5019801;28;20370;-72
2023/02/21 09:37:31;;;;;;;55.25;28.33;;;9.20;99.90;;;;;;5009806;28;20455;-73
2023/02/21 09:39:57;;;;;;;48.42;27.17;;;9.20;99.90;;;;;;5021354;28;20041;-73
2023/02/21 09:42:27;;;;;;;52.80;27.20;;;9.30;99.90;;;;;;5003750;28;20049;-72
2023/02/21 09:44:53;;;;;;;51.63;27.38;;;9.30;99.90;;;;;;4996787;28;20046;-72
2023/02/21 09:47:32;;;;;;;51.25;28.15;;;9.40;99.90;;;;;;5022446;28;20054;-73
2023/02/21 09:50:03;;;;;;;49.78;26.65;;;9.40;99.90;;;;;;4990425;28;20045;-73
2023/02/21 09:52:36;;;;;;;51.97;26.63;;;9.40;99.90;;;;;;5001500;28;20151;-73
2023/02/21 09:55:28;;;;;;;50.47;28.05;;;9.40;99.90;;;;;;5008144;28;20397;-73
2023/02/21 09:57:54;;;;;;;48.97;25.90;;;9.40;99.90;;;;;;5025044;28;20450;-73
2023/02/21 10:00:28;;;;;;;49.00;26.45;;;9.50;99.90;;;;;;5000560;28;20171;-72
2023/02/21 10:03:30;;;;;;;48.53;25.23;;;9.40;99.90;;;;;;5025169;28;20049;-73
2023/02/21 10:06:05;;;;;;;49.28;26.27;;;9.40;99.90;;;;;;5017296;28;20109;-72
2023/02/21 10:08:55;;;;;;;50.00;27.27;;;9.40;99.90;;;;;;5033345;28;20049;-72
2023/02/21 10:11:36;;;;;;;51.67;26.50;;;9.50;99.90;;;;;;4996359;28;20046;-73
2023/02/21 10:14:23;;;;;;;52.28;27.17;;;9.50;99.90;;;;;;5004310;28;20081;-73
2023/02/21 10:17:14;;;;;;;52.28;27.88;;;9.50;99.90;;;;;;5021440;28;20049;-73
2023/02/21 10:19:44;;;;;;;49.20;25.55;;;9.50;99.90;;;;;;5009595;28;20041;-73
2023/02/21 10:22:14;;;;;;;48.53;26.70;;;9.50;99.90;;;;;;5011534;28;20045;-71
2023/02/21 10:24:40;;;;;;;47.97;25.92;;;9.50;99.90;;;;;;5023423;28;20146;-71
2023/02/21 10:27:07;;;;;;;48.90;26.25;;;9.60;99.90;;;;;;5001416;28;20088;-71
2023/02/21 10:29:59;;;;;;;45.67;23.52;;;9.50;99.90;;;;;;4994842;28;20055;-72
2023/02/21 10:32:25;;;;;;;42.28;24.92;;;9.60;99.90;;;;;;5025606;28;20045;-72
2023/02/21 10:34:53;;;;;;;44.72;24.95;;;9.60;99.90;;;;;;5003334;28;20104;-72
2023/02/21 10:37:33;;;;;;;40.90;23.00;;;9.60;99.90;;;;;;5006513;28;20084;-72
2023/02/21 10:40:26;;;;;;;42.83;23.50;;;9.60;99.90;;;;;;5026389;28;20045;-72
2023/02/21 10:42:55;;;;;;;40.50;23.02;;;9.60;99.90;;;;;;5022707;28;20700;-72
2023/02/21 10:45:26;;;;;;;40.90;22.73;;;9.70;99.90;;;;;;4994654;28;20071;-72
2023/02/21 10:48:08;;;;;;;39.50;21.05;;;9.70;99.90;;;;;;4992294;28;20073;-72
2023/02/21 10:50:50;;;;;;;38.72;21.20;;;9.70;99.90;;;;;;5000525;28;20066;-72
2023/02/21 10:53:26;;;;;;;38.58;22.50;;;9.70;99.90;;;;;;5020862;28;20104;-72
2023/02/21 10:56:19;;;;;;;40.60;21.50;;;9.80;99.90;;;;;;5001992;28;20046;-72
2023/02/21 10:58:46;;;;;;;39.15;21.83;;;9.80;99.90;;;;;;5018493;28;20454;-72
2023/02/21 11:01:14;;;;;;;41.78;23.00;;;9.80;99.90;;;;;;5004106;28;20466;-72
2023/02/21 11:03:45;;;;;;;46.15;23.75;;;9.80;99.90;;;;;;5028661;28;20144;-72
2023/02/21 11:06:18;;;;;;;42.20;23.08;;;9.80;99.90;;;;;;5035542;28;20425;-72
2023/02/21 11:08:44;;;;;;;44.38;23.55;;;9.80;99.90;;;;;;5024106;28;20049;-72
2023/02/21 11:11:10;;;;;;;40.28;22.40;;;9.80;99.90;;;;;;5006905;28;20115;-72
2023/02/21 11:13:35;;;;;;;47.65;24.20;;;9.90;99.90;;;;;;5002567;28;20328;-72
2023/02/21 11:16:14;;;;;;;47.83;25.98;;;9.80;99.90;;;;;;5021742;28;20065;-72
2023/02/21 11:18:40;;;;;;;42.05;23.55;;;9.80;99.90;;;;;;5021146;28;20068;-72
2023/02/21 11:21:13;;;;;;;43.58;23.35;;;9.80;99.90;;;;;;4994804;28;20042;-72
2023/02/21 11:23:56;;;;;;;43.95;24.02;;;9.80;99.90;;;;;;5000630;28;20056;-72
2023/02/21 11:26:22;;;;;;;47.53;25.00;;;9.80;99.90;;;;;;5002065;28;20057;-73
2023/02/21 11:28:48;;;;;;;44.47;23.42;;;9.80;99.90;;;;;;5032112;28;20053;-72
2023/02/21 11:31:26;;;;;;;44.67;24.20;;;9.80;99.90;;;;;;4994766;28;20382;-72
2023/02/21 11:33:57;;;;;;;43.35;24.27;;;9.80;99.90;;;;;;5032623;28;20140;-72
2023/02/21 11:36:34;;;;;;;43.78;22.42;;;9.80;99.90;;;;;;4988887;28;20038;-72
2023/02/21 11:39:26;;;;;;;42.70;24.02;;;9.80;99.90;;;;;;5017460;28;20046;-72
2023/02/21 11:41:56;;;;;;;42.25;22.65;;;9.90;99.90;;;;;;5034558;28;20037;-72
2023/02/21 11:44:36;;;;;;;38.50;21.92;;;10.00;99.90;;;;;;5038528;28;20080;-76
2023/02/21 11:47:21;;;;;;;33.92;19.30;;;10.10;99.90;;;;;;5021227;28;20038;-76
2023/02/21 11:50:04;;;;;;;30.63;18.83;;;10.20;99.90;;;;;;5021406;28;20125;-76
2023/02/21 11:52:35;;;;;;;34.25;18.88;;;10.20;99.90;;;;;;5008977;28;20104;-76
2023/02/21 11:55:01;;;;;;;33.38;19.02;;;10.20;99.90;;;;;;5012590;28;20046;-76
2023/02/21 11:58:02;;;;;;;34.17;19.10;;;10.20;99.90;;;;;;5013464;28;20059;-76
2023/02/21 12:01:04;;;;;;;32.45;17.35;;;10.20;99.90;;;;;;5021773;28;20072;-76
2023/02/21 12:04:03;;;;;;;33.33;18.50;;;10.20;99.90;;;;;;5007506;28;20060;-76
2023/02/21 12:06:36;;;;;;;32.88;17.65;;;10.30;99.90;;;;;;5022988;28;20053;-75
2023/02/21 12:09:09;;;;;;;32.00;17.98;;;10.30;99.90;;;;;;5027168;28;20339;-75
2023/02/21 12:11:50;;;;;;;30.20;17.70;;;10.30;99.90;;;;;;4992832;28;20076;-75
2023/02/21 12:14:34;;;;;;;29.63;16.50;;;10.30;99.90;;;;;;4999462;28;20045;-76
2023/02/21 12:17:18;;;;;;;33.38;17.33;;;10.30;99.90;;;;;;5019173;28;20041;-76
2023/02/21 12:20:21;;;;;;;28.52;17.02;;;10.30;99.90;;;;;;5017909;28;20050;-76
2023/02/21 12:23:16;;;;;;;24.30;15.13;;;10.30;99.90;;;;;;5027541;28;20176;-75
2023/02/21 12:25:45;;;;;;;25.90;15.32;;;10.30;99.90;;;;;;5000329;28;20049;-75
2023/02/21 12:28:36;;;;;;;25.70;14.93;;;10.30;99.90;;;;;;5021297;28;20093;-75
2023/02/21 12:31:14;;;;;;;22.35;14.23;;;10.30;99.90;;;;;;5028463;28;20125;-76
2023/02/21 12:34:05;;;;;;;25.17;15.43;;;10.40;99.90;;;;;;5024945;28;20056;-75
2023/02/21 12:36:55;;;;;;;26.77;16.52;;;10.40;99.90;;;;;;5022950;28;20042;-76
2023/02/21 12:39:30;;;;;;;22.25;14.15;;;10.50;99.90;;;;;;5027701;28;20076;-76
2023/02/21 12:42:18;;;;;;;23.77;14.43;;;10.60;99.90;;;;;;5006673;28;20087;-76
2023/02/21 12:45:03;;;;;;;20.70;13.98;;;11.40;99.90;;;;;;5025589;28;20056;-76
2023/02/21 12:47:50;;;;;;;23.33;13.27;;;10.90;99.90;;;;;;5025380;28;20065;-75
2023/02/21 12:50:24;;;;;;;23.42;14.85;;;10.70;99.90;;;;;;5038335;28;20072;-75
2023/02/21 12:53:10;;;;;;;24.63;13.90;;;10.70;99.90;;;;;;5012785;28;20378;-75
2023/02/21 12:55:41;;;;;;;24.42;15.30;;;10.60;99.90;;;;;;5009067;28;20478;-75
2023/02/21 12:58:25;;;;;;;23.02;13.98;;;10.60;99.90;;;;;;5012960;28;20044;-75
2023/02/21 13:01:10;;;;;;;22.00;13.43;;;10.60;99.90;;;;;;5007983;28;20033;-75
2023/02/21 13:03:41;;;;;;;20.08;13.27;;;10.60;99.90;;;;;;5011547;28;20057;-75
2023/02/21 13:06:14;;;;;;;21.05;13.65;;;10.60;99.90;;;;;;5024070;28;20048;-76
2023/02/21 13:08:55;;;;;;;19.40;12.63;;;10.70;99.90;;;;;;5022412;28;20033;-76
2023/02/21 13:11:23;;;;;;;19.95;12.55;;;12.60;99.90;;;;;;5004695;28;20049;-76
2023/02/21 13:13:49;;;;;;;19.98;11.90;;;14.20;99.90;;;;;;4998296;28;20055;-76
2023/02/21 13:16:17;;;;;;;20.98;13.40;;;13.90;99.90;;;;;;5020684;28;20067;-75
2023/02/21 13:19:02;;;;;;;19.20;12.30;;;13.50;99.90;;;;;;5027674;28;20037;-76
2023/02/21 13:21:51;;;;;;;16.73;11.30;;;13.90;99.90;;;;;;5017130;28;20099;-76
2023/02/21 13:24:41;;;;;;;19.55;13.50;;;14.70;99.90;;;;;;5020609;28;20052;-76
2023/02/21 13:27:16;;;;;;;18.27;12.95;;;13.50;99.90;;;;;;5022955;28;20121;-75
2023/02/21 13:29:43;;;;;;;17.25;12.10;;;13.90;99.90;;;;;;5014368;28;20100;-75
2023/02/21 13:32:15;;;;;;;16.23;11.60;;;14.80;99.90;;;;;;5005646;28;20120;-75
2023/02/21 13:35:00;;;;;;;17.58;11.80;;;15.30;99.90;;;;;;5040390;28;20048;-74
2023/02/21 13:37:28;;;;;;;16.08;10.85;;;14.80;99.90;;;;;;4994615;28;20038;-76
2023/02/21 13:40:24;;;;;;;17.90;12.23;;;15.00;99.90;;;;;;5011661;28;20042;-75
2023/02/21 13:43:01;;;;;;;17.08;12.25;;;13.80;99.90;;;;;;5009478;28;20128;-75
2023/02/21 13:45:27;;;;;;;18.85;12.35;;;12.70;99.90;;;;;;5011055;28;20416;-75
2023/02/21 13:47:56;;;;;;;18.55;12.65;;;12.20;99.90;;;;;;4972665;28;20459;-75
2023/02/21 13:50:37;;;;;;;20.17;12.45;;;12.40;99.90;;;;;;5028574;28;20045;-75
2023/02/21 13:53:34;;;;;;;17.65;11.90;;;12.50;99.90;;;;;;5020503;28;20045;-75
2023/02/21 13:56:06;;;;;;;19.75;12.88;;;12.20;99.90;;;;;;5014525;28;20540;-75
2023/02/21 13:58:45;;;;;;;19.02;13.13;;;12.20;99.90;;;;;;5029971;28;20401;-75
2023/02/21 14:01:23;;;;;;;18.67;12.73;;;12.10;99.90;;;;;;5028763;28;20270;-75
2023/02/21 14:03:50;;;;;;;19.52;12.02;;;11.90;99.90;;;;;;5039593;28;20041;-76
2023/02/21 14:06:35;;;;;;;20.33;12.95;;;11.80;99.90;;;;;;5000694;28;20489;-75
2023/02/21 14:09:14;;;;;;;19.98;13.07;;;12.00;99.90;;;;;;5005799;28;20050;-75
2023/02/21 14:11:49;;;;;;;18.25;11.25;;;12.10;99.90;;;;;;4984208;28;20053;-74
2023/02/21 14:14:33;;;;;;;18.15;11.90;;;12.00;99.90;;;;;;5026178;28;20045;-74
2023/02/21 14:17:12;;;;;;;19.40;12.00;;;11.60;99.90;;;;;;5004657;28;20041;-74
2023/02/21 14:19:46;;;;;;;17.98;11.38;;;11.40;99.90;;;;;;5020255;28;20038;-75
2023/02/21 14:22:28;;;;;;;16.67;11.40;;;11.20;99.90;;;;;;5005681;28;20045;-75
2023/02/21 14:25:14;;;;;;;19.58;12.35;;;11.10;99.90;;;;;;5012276;28;20056;-75
2023/02/21 14:27:40;;;;;;;17.17;11.70;;;11.10;99.90;;;;;;5005560;28;20138;-74
2023/02/21 14:30:09;;;;;;;20.15;12.10;;;11.20;99.90;;;;;;4999510;28;20494;-75
2023/02/21 14:32:43;;;;;;;19.70;12.65;;;11.10;99.90;;;;;;5024066;28;20211;-74
2023/02/21 14:35:18;;;;;;;19.02;12.57;;;11.10;99.90;;;;;;5013886;28;20060;-75
2023/02/21 14:38:07;;;;;;;17.08;11.68;;;11.00;99.90;;;;;;5031083;28;20526;-75
2023/02/21 14:40:48;;;;;;;18.88;11.93;;;11.00;99.90;;;;;;5032381;28;20132;-74
2023/02/21 14:43:32;;;;;;;18.50;12.52;;;11.00;99.90;;;;;;5015718;28;20367;-75
2023/02/21 14:46:09;;;;;;;19.92;11.95;;;10.90;99.90;;;;;;5019683;28;20061;-75
2023/02/21 14:48:40;;;;;;;20.30;12.32;;;10.90;99.90;;;;;;5011891;28;20050;-74
2023/02/21 14:51:35;;;;;;;20.58;12.35;;;10.80;99.90;;;;;;5014287;28;20124;-74
2023/02/21 14:54:39;;;;;;;19.00;12.15;;;10.80;99.90;;;;;;5028988;28;20069;-74
2023/02/21 14:57:33;;;;;;;21.38;11.73;;;10.70;99.90;;;;;;5050407;28;20045;-74
2023/02/21 15:00:05;;;;;;;19.08;12.35;;;10.70;99.90;;;;;;4999366;28;20084;-74
2023/02/21 15:02:55;;;;;;;20.17;12.90;;;10.60;99.90;;;;;;5012995;28;20386;-75
2023/02/21 15:05:33;;;;;;;22.02;12.40;;;10.70;99.90;;;;;;5020811;28;20124;-75
2023/02/21 15:08:24;;;;;;;18.23;11.80;;;10.70;99.90;;;;;;5003136;28;20410;-74
2023/02/21 15:10:52;;;;;;;20.27;12.70;;;10.70;99.90;;;;;;5022750;28;20462;-74
2023/02/21 15:13:29;;;;;;;19.33;12.40;;;10.70;99.90;;;;;;5008575;28;20111;-75